Time;durP1;ratioP1;P1;durP2;ratioP2;P2;SDS_P1;SDS_P2;PMS_P1;PMS_P2;Temp;Humidity;BMP_temperature;BMP_pressure;BME280_temperature;BME280_humidity;BME280_pressure;Samples;Min_cycle;Max_cycle;Signal;HPM_P1;HPM_P2
2022/04/25 00:00:44;;;;;;;27.90;18.40;;;;;;;6.50;100.00;97588.09;4204027;28;20523;-72
2022/04/25 00:02:45;;;;;;;27.45;17.25;;;;;;;6.48;100.00;97591.22;4209835;27;20571;-72
2022/04/25 00:04:45;;;;;;;30.02;17.90;;;;;;;6.47;100.00;97592.41;4203778;28;20047;-72
2022/04/25 00:06:45;;;;;;;26.90;17.92;;;;;;;6.48;100.00;97596.72;4204102;28;20111;-72
2022/04/25 00:08:46;;;;;;;26.77;16.48;;;;;;;6.48;100.00;97596.72;4206124;27;20040;-72
2022/04/25 00:10:46;;;;;;;26.48;18.20;;;;;;;6.50;100.00;97596.34;4204406;28;20224;-72
2022/04/25 00:12:47;;;;;;;28.38;18.00;;;;;;;6.48;100.00;97596.72;4208138;27;20634;-72
2022/04/25 00:14:47;;;;;;;28.73;19.15;;;;;;;6.48;100.00;97591.22;4203436;28;20039;-72
2022/04/25 00:16:49;;;;;;;27.00;18.13;;;;;;;6.47;100.00;97594.34;4202789;28;20118;-72
2022/04/25 00:18:50;;;;;;;29.55;19.38;;;;;;;6.46;100.00;97596.31;4203466;28;20150;-72
2022/04/25 00:20:50;;;;;;;28.15;18.58;;;;;;;6.46;100.00;97595.53;4203832;28;20064;-72
2022/04/25 00:22:50;;;;;;;33.63;19.88;;;;;;;6.47;100.00;97594.34;4207376;28;20058;-72
2022/04/25 00:24:51;;;;;;;28.83;18.73;;;;;;;6.51;100.00;97599.88;4206799;28;20071;-72
2022/04/25 00:26:51;;;;;;;25.42;17.08;;;;;;;6.48;100.00;97596.72;4203062;28;20259;-72
2022/04/25 00:28:52;;;;;;;30.45;19.02;;;;;;;6.48;100.00;97601.44;4203526;28;20106;-72
2022/04/25 00:30:52;;;;;;;27.95;18.27;;;;;;;6.47;100.00;97597.09;4203663;28;20047;-72
2022/04/25 00:32:52;;;;;;;30.55;19.17;;;;;;;6.45;100.00;97599.41;4208768;28;20122;-72
2022/04/25 00:34:53;;;;;;;29.27;18.33;;;;;;;6.43;100.00;97594.28;4203647;28;20044;-72
2022/04/25 00:36:53;;;;;;;27.33;17.75;;;;;;;6.44;100.00;97595.88;4209527;27;20032;-72
2022/04/25 00:38:53;;;;;;;26.77;17.25;;;;;;;6.45;100.00;97596.66;4203230;28;20480;-72
2022/04/25 00:40:54;;;;;;;27.95;17.42;;;;;;;6.45;100.00;97602.97;4203462;28;20448;-72
2022/04/25 00:42:54;;;;;;;25.75;16.60;;;;;;;6.45;100.00;97604.91;4204018;28;20107;-72
2022/04/25 00:44:54;;;;;;;26.38;17.58;;;;;;;6.43;100.00;97599.00;4203192;28;20056;-72
2022/04/25 00:46:56;;;;;;;27.50;17.83;;;;;;;6.44;100.00;97606.88;4201737;28;20058;-72
2022/04/25 00:48:56;;;;;;;25.13;16.63;;;;;;;6.42;100.00;97598.22;4203372;28;20145;-72
2022/04/25 00:50:56;;;;;;;26.98;17.73;;;;;;;6.43;100.00;97601.75;4203135;28;20475;-72
2022/04/25 00:52:57;;;;;;;25.77;17.10;;;;;;;6.42;100.00;97597.41;4203102;28;20052;-72
2022/04/25 00:55:00;;;;;;;26.30;18.25;;;;;;;6.41;100.00;97601.34;4203091;28;20105;-72
2022/04/25 00:57:01;;;;;;;27.88;17.95;;;;;;;6.40;100.00;97592.31;4202659;28;20344;-72
2022/04/25 00:59:03;;;;;;;24.23;16.40;;;;;;;6.39;100.00;97589.94;4203093;28;20139;-72
2022/04/25 01:01:03;;;;;;;25.55;17.30;;;;;;;6.40;100.00;97597.00;4203284;28;20048;-72
2022/04/25 01:03:04;;;;;;;26.83;17.27;;;;;;;6.44;100.00;97604.13;4203548;28;20121;-72
2022/04/25 01:05:05;;;;;;;26.73;16.58;;;;;;;6.42;100.00;97603.72;4212303;28;20210;-72
2022/04/25 01:07:06;;;;;;;26.63;17.13;;;;;;;6.39;100.00;97598.97;4204628;28;20135;-72
2022/04/25 01:09:06;;;;;;;27.10;18.25;;;;;;;6.37;100.00;97600.47;4203179;28;20098;-72
2022/04/25 01:11:07;;;;;;;29.52;18.00;;;;;;;6.33;100.00;97594.94;4207003;27;20036;-72
2022/04/25 01:13:07;;;;;;;27.95;18.48;;;;;;;6.28;100.00;97589.75;4203016;28;20121;-72
2022/04/25 01:15:12;;;;;;;30.77;18.95;;;;;;;6.29;100.00;97596.03;4202673;28;20039;-72
2022/04/25 01:17:12;;;;;;;30.80;18.42;;;;;;;6.27;100.00;97598.38;4201305;28;20050;-72
2022/04/25 01:19:12;;;;;;;31.02;17.92;;;;;;;6.29;100.00;97596.03;4205262;28;20131;-72
2022/04/25 01:21:14;;;;;;;28.92;17.83;;;;;;;6.27;100.00;97596.44;4203331;28;20052;-72
2022/04/25 01:28:02;;;;;;;30.10;18.17;;;;;;;6.28;100.00;97602.72;4202313;28;20196;-72
2022/04/25 01:30:03;;;;;;;27.02;17.83;;;;;;;6.32;100.00;97609.06;4209818;28;20032;-72
2022/04/25 01:32:04;;;;;;;29.63;18.57;;;;;;;6.29;100.00;97609.78;4202790;28;20040;-72
2022/04/25 01:34:05;;;;;;;29.83;19.73;;;;;;;6.29;100.00;97607.03;4207912;27;20027;-72
2022/04/25 01:36:05;;;;;;;27.88;17.33;;;;;;;6.27;100.00;97612.91;4202966;28;20031;-72
2022/04/25 01:38:06;;;;;;;29.88;18.27;;;;;;;6.28;100.00;97619.97;4202041;28;20059;-72
2022/04/25 01:40:07;;;;;;;29.25;17.83;;;;;;;6.27;100.00;97620.34;4202725;28;20300;-72
2022/04/25 01:42:08;;;;;;;26.77;17.90;;;;;;;6.27;100.00;97620.34;4204939;28;20187;-72
2022/04/25 01:44:08;;;;;;;28.33;18.73;;;;;;;6.27;100.00;97623.09;4202102;28;20039;-72
2022/04/25 01:46:09;;;;;;;29.42;18.27;;;;;;;6.24;100.00;97626.59;4202808;28;20596;-72
2022/04/25 01:48:09;;;;;;;25.67;16.70;;;;;;;6.26;100.00;97624.28;4204112;28;20024;-72
2022/04/25 01:50:10;;;;;;;26.17;18.10;;;;;;;6.27;100.00;97628.59;4202623;28;20475;-72
2022/04/25 01:52:27;;;;;;;22.35;15.10;;;;;;;6.30;100.00;97633.38;4202430;28;20028;-72
2022/04/25 01:54:28;;;;;;;26.88;16.45;;;;;;;6.32;100.00;97633.78;4202160;28;20032;-72
2022/04/25 01:56:28;;;;;;;24.92;16.42;;;;;;;6.31;100.00;97624.75;4202578;28;20048;-72
2022/04/25 01:58:28;;;;;;;24.40;15.98;;;;;;;6.32;100.00;97628.28;4202141;28;20123;-72
2022/04/25 02:00:29;;;;;;;26.63;17.67;;;;;;;6.33;100.00;97630.66;4202379;28;20040;-72
2022/04/25 02:02:29;;;;;;;29.08;18.25;;;;;;;6.30;100.00;97631.41;4202937;28;20357;-72
2022/04/25 02:04:30;;;;;;;27.63;18.20;;;;;;;6.30;100.00;97627.88;4202234;28;20040;-72
2022/04/25 02:06:30;;;;;;;30.55;19.55;;;;;;;6.28;100.00;97630.97;4202100;28;20110;-72
2022/04/25 02:08:30;;;;;;;30.63;18.40;;;;;;;6.29;100.00;97640.00;4202361;28;20048;-72
2022/04/25 02:10:31;;;;;;;31.08;18.83;;;;;;;6.27;100.00;97634.09;4202957;28;20040;-73
2022/04/25 02:12:31;;;;;;;26.15;17.23;;;;;;;6.29;100.00;97637.25;4203589;28;20044;-72
2022/04/25 02:14:32;;;;;;;24.60;16.63;;;;;;;6.28;100.00;97638.41;4208944;28;20063;-72
2022/04/25 02:16:32;;;;;;;26.58;17.15;;;;;;;6.29;100.00;97634.50;4202443;28;20450;-72
2022/04/25 02:18:33;;;;;;;26.98;16.98;;;;;;;6.28;100.00;97641.97;4201961;28;20068;-72
2022/04/25 02:20:33;;;;;;;26.02;15.70;;;;;;;6.30;100.00;97647.91;4202120;28;20047;-72
2022/04/25 02:22:35;;;;;;;24.35;16.67;;;;;;;6.29;100.00;97646.31;4204891;28;20040;-74
2022/04/25 02:24:36;;;;;;;27.83;16.95;;;;;;;6.31;100.00;97651.44;4206202;28;20194;-72
2022/04/25 02:26:36;;;;;;;24.42;16.15;;;;;;;6.33;100.00;97649.91;4204574;28;20130;-72
2022/04/25 02:28:38;;;;;;;25.33;16.85;;;;;;;6.37;100.00;97644.44;4204909;28;20043;-72
2022/04/25 02:30:38;;;;;;;24.88;15.50;;;;;;;6.39;100.00;97648.41;4205370;28;20041;-72
2022/04/25 02:32:38;;;;;;;28.40;18.08;;;;;;;6.37;100.00;97650.75;4210185;27;20543;-72
2022/04/25 02:34:42;;;;;;;25.55;15.60;;;;;;;6.38;100.00;97646.84;4204805;28;20075;-72
2022/04/25 02:36:42;;;;;;;25.33;16.63;;;;;;;6.39;100.00;97659.41;4205143;28;20540;-72
2022/04/25 02:38:42;;;;;;;24.85;16.33;;;;;;;6.41;100.00;97650.78;4205363;28;20074;-72
2022/04/25 02:40:43;;;;;;;25.48;16.98;;;;;;;6.39;100.00;97664.91;4205487;28;20031;-72
2022/04/25 02:42:43;;;;;;;29.30;18.17;;;;;;;6.37;100.00;97658.19;4214215;27;20031;-73
2022/04/25 02:44:43;;;;;;;24.35;16.95;;;;;;;6.38;100.00;97657.84;4204060;28;20693;-73
2022/04/25 02:46:44;;;;;;;28.83;16.48;;;;;;;6.34;100.00;97656.19;4207273;28;20550;-72
2022/04/25 02:48:46;;;;;;;28.60;18.48;;;;;;;6.36;100.00;97662.09;4204895;28;20058;-72
2022/04/25 02:50:48;;;;;;;25.90;16.20;;;;;;;6.37;100.00;97658.19;4205363;28;20522;-72
2022/04/25 02:52:53;;;;;;;27.23;17.75;;;;;;;6.37;100.00;97671.91;4211463;27;20464;-72
2022/04/25 02:54:53;;;;;;;32.72;19.85;;;;;;;6.35;100.00;97669.53;4204587;28;20075;-72
2022/04/25 02:56:55;;;;;;;27.38;17.58;;;;;;;6.36;100.00;97659.34;4207585;28;20032;-72
2022/04/25 02:58:55;;;;;;;25.70;16.83;;;;;;;6.37;100.00;97663.66;4211067;28;20540;-72
2022/04/25 03:00:56;;;;;;;28.65;17.98;;;;;;;6.37;100.00;97661.75;4205026;28;20040;-72
2022/04/25 03:02:57;;;;;;;27.75;17.90;;;;;;;6.38;100.00;97660.56;4204405;28;20558;-72
2022/04/25 03:04:57;;;;;;;26.20;16.38;;;;;;;6.37;100.00;97660.91;4204254;28;20138;-72
2022/04/25 03:06:58;;;;;;;27.38;18.15;;;;;;;6.38;100.00;97662.53;4207100;28;20044;-72
2022/04/25 03:08:58;;;;;;;25.10;16.67;;;;;;;6.40;100.00;97663.75;4204583;28;20109;-72
2022/04/25 03:10:58;;;;;;;28.52;17.17;;;;;;;6.38;100.00;97659.78;4212141;27;20047;-73
2022/04/25 03:13:00;;;;;;;30.02;17.75;;;;;;;6.40;100.00;97662.94;4207058;28;20115;-74
2022/04/25 03:15:00;;;;;;;26.30;17.85;;;;;;;6.39;100.00;97659.41;4204897;28;20032;-74
2022/04/25 03:17:02;;;;;;;29.88;18.20;;;;;;;6.40;100.00;97669.25;4209271;28;20039;-74
2022/04/25 03:19:02;;;;;;;27.42;17.85;;;;;;;6.39;100.00;97666.88;4204164;28;20044;-74
2022/04/25 03:21:03;;;;;;;27.25;17.83;;;;;;;6.41;100.00;97667.28;4204995;28;20429;-73
2022/04/25 03:23:05;;;;;;;27.83;18.65;;;;;;;6.40;100.00;97668.44;4204665;28;20040;-74
2022/04/25 03:25:06;;;;;;;30.27;20.13;;;;;;;6.39;100.00;97670.41;4210819;27;20047;-74
2022/04/25 03:27:06;;;;;;;29.17;17.95;;;;;;;6.43;100.00;97673.19;4203884;28;20760;-74
2022/04/25 03:29:07;;;;;;;32.33;19.17;;;;;;;6.41;100.00;97668.06;4204701;28;20040;-74
2022/04/25 03:31:07;;;;;;;30.80;19.23;;;;;;;6.40;100.00;97682.19;4209708;28;20043;-74
2022/04/25 03:33:10;;;;;;;29.55;19.67;;;;;;;6.39;100.00;97686.09;4204064;28;20063;-74
2022/04/25 03:35:14;;;;;;;30.70;19.55;;;;;;;6.43;100.00;97684.97;4214209;27;20116;-74
2022/04/25 03:37:14;;;;;;;32.45;19.02;;;;;;;6.39;100.00;97680.59;4202741;28;20044;-74
2022/04/25 03:39:15;;;;;;;33.50;20.80;;;;;;;6.43;100.00;97687.72;4204468;28;20044;-73
2022/04/25 03:41:15;;;;;;;31.30;20.17;;;;;;;6.45;100.00;97687.34;4203914;28;20071;-74
2022/04/25 03:43:17;;;;;;;30.98;19.60;;;;;;;6.41;100.00;97692.81;4204411;28;20681;-74
2022/04/25 03:45:18;;;;;;;30.88;19.15;;;;;;;6.41;100.00;97684.56;4203680;28;20052;-74
2022/04/25 03:47:18;;;;;;;30.80;20.67;;;;;;;6.43;100.00;97689.69;4202940;28;20078;-74
2022/04/25 03:49:19;;;;;;;30.27;17.73;;;;;;;6.40;100.00;97684.94;4205178;28;20373;-74
2022/04/25 03:51:20;;;;;;;31.30;19.05;;;;;;;6.41;100.00;97694.75;4204028;28;20105;-73
2022/04/25 03:53:20;;;;;;;32.42;19.70;;;;;;;6.42;100.00;97699.88;4203946;28;20637;-74
2022/04/25 03:57:47;;;;;;;27.63;18.10;;;;;;;6.47;100.00;97699.56;4201898;28;20083;-74
2022/04/25 03:59:47;;;;;;;29.00;18.20;;;;;;;6.54;100.00;97707.13;4207329;28;20040;-74
2022/04/25 04:01:47;;;;;;;27.60;18.10;;;;;;;6.55;100.00;97707.94;4203683;28;20364;-73
2022/04/25 04:03:48;;;;;;;30.35;19.80;;;;;;;6.52;100.00;97700.41;4207677;28;20519;-73
2022/04/25 04:05:50;;;;;;;29.55;18.35;;;;;;;6.53;100.00;97708.28;4209772;28;20051;-73
2022/04/25 04:07:51;;;;;;;21.55;14.95;;;;;;;6.55;100.00;97713.44;4203070;28;20371;-73
2022/04/25 04:09:51;;;;;;;22.95;14.30;;;;;;;6.57;100.00;97709.13;4207646;28;20064;-73
2022/04/25 04:11:52;;;;;;;23.55;14.98;;;;;;;6.63;100.00;97704.91;4212387;27;20078;-73
2022/04/25 04:13:52;;;;;;;22.08;14.30;;;;;;;6.67;100.00;97718.69;4204260;28;20449;-73
2022/04/25 04:15:53;;;;;;;21.40;14.63;;;;;;;6.66;100.00;97717.13;4203477;28;20487;-74
2022/04/25 04:17:54;;;;;;;23.30;14.43;;;;;;;6.63;100.00;97713.16;4203040;28;20052;-73
2022/04/25 04:19:54;;;;;;;24.08;14.77;;;;;;;6.65;100.00;97724.56;4204168;28;20040;-73
2022/04/25 04:21:54;;;;;;;22.27;14.95;;;;;;;6.61;100.00;97725.66;4203821;28;20358;-74
2022/04/25 04:23:55;;;;;;;23.55;14.35;;;;;;;6.66;100.00;97728.91;4203702;28;20439;-74
2022/04/25 04:25:55;;;;;;;20.38;13.85;;;;;;;6.65;100.00;97721.81;4203193;28;20044;-74
2022/04/25 04:27:55;;;;;;;21.50;13.38;;;;;;;6.68;100.00;97731.28;4202742;28;20039;-73
2022/04/25 04:29:56;;;;;;;20.83;15.07;;;;;;;6.63;100.00;97729.66;4203846;28;20044;-73
2022/04/25 04:31:58;;;;;;;23.95;15.23;;;;;;;6.60;100.00;97730.38;4203706;28;20478;-73
2022/04/25 04:33:58;;;;;;;22.15;14.05;;;;;;;6.62;100.00;97735.50;4203836;28;20468;-74
2022/04/25 04:38:17;;;;;;;24.20;13.65;;;;;;;6.61;100.00;97733.91;4203619;28;20298;-74
2022/04/25 04:40:29;;;;;;;20.35;13.73;;;;;;;6.58;100.00;97729.16;4208816;28;20024;-73
2022/04/25 04:42:29;;;;;;;20.27;13.57;;;;;;;6.61;100.00;97739.41;4206184;28;20252;-73
2022/04/25 04:44:30;;;;;;;21.42;13.23;;;;;;;6.60;100.00;97746.06;4202539;28;20294;-74
2022/04/25 04:46:30;;;;;;;18.55;11.85;;;;;;;6.60;100.00;97746.88;4202816;28;20490;-73
2022/04/25 04:48:31;;;;;;;19.67;12.73;;;;;;;6.61;100.00;97759.44;4202373;28;20469;-73
2022/04/25 04:50:31;;;;;;;19.27;12.68;;;;;;;6.61;100.00;97745.69;4203289;28;20314;-73
2022/04/25 04:52:32;;;;;;;18.50;12.10;;;;;;;6.66;100.00;97755.59;4203467;28;20102;-73
2022/04/25 04:54:32;;;;;;;17.10;11.23;;;;;;;6.67;100.00;97759.94;4206615;27;20040;-73
2022/04/25 04:56:32;;;;;;;16.65;11.43;;;;;;;6.70;100.00;97759.19;4144394;27;20483;-73
2022/04/25 04:58:33;;;;;;;19.10;12.10;;;;;;;6.69;100.00;97771.34;4206647;28;20044;-73
2022/04/25 05:00:33;;;;;;;16.45;11.77;;;;;;;6.71;100.00;97769.03;4202896;28;20071;-73
2022/04/25 05:02:35;;;;;;;12.88;9.95;;;;;;;6.63;100.00;97770.88;4201766;28;20080;-73
2022/04/25 05:04:36;;;;;;;12.45;9.18;;;;;;;6.61;100.00;97775.94;4202373;27;20464;-73
2022/04/25 05:06:37;;;;;;;12.93;8.93;;;;;;;6.59;100.00;97771.97;4202190;28;20531;-73
2022/04/25 05:08:38;;;;;;;11.90;8.23;;;;;;;6.57;100.00;97788.84;4203360;28;20035;-73
2022/04/25 05:10:38;;;;;;;13.40;8.65;;;;;;;6.54;100.00;97786.00;4211793;27;20043;-73
2022/04/25 05:12:49;;;;;;;10.07;8.40;;;;;;;6.52;100.00;97789.13;4202668;28;20406;-73
2022/04/25 05:14:49;;;;;;;12.50;8.65;;;;;;;6.49;100.00;97798.13;4202170;28;20412;-73
2022/04/25 05:16:50;;;;;;;13.00;8.43;;;;;;;6.43;100.00;97794.09;4202421;28;20058;-73
2022/04/25 05:18:50;;;;;;;14.98;9.88;;;;;;;6.34;100.00;97790.81;4212207;27;20376;-73
2022/04/25 05:20:51;;;;;;;14.25;9.52;;;;;;;6.35;100.00;97797.88;4203004;28;20086;-73
2022/04/25 05:22:52;;;;;;;14.20;9.10;;;;;;;6.33;100.00;97790.00;4202830;28;20040;-73
2022/04/25 05:24:52;;;;;;;16.20;10.63;;;;;;;6.33;100.00;97801.00;4208876;28;20072;-73
2022/04/25 05:26:52;;;;;;;14.70;9.60;;;;;;;6.29;100.00;97799.34;4203248;27;20044;-73
2022/04/25 05:28:52;;;;;;;14.73;10.23;;;;;;;6.28;100.00;97803.25;4204143;28;20063;-73
2022/04/25 05:30:53;;;;;;;15.80;9.85;;;;;;;6.29;100.00;97802.09;4205442;27;20098;-73
2022/04/25 05:32:57;;;;;;;14.10;9.80;;;;;;;6.24;100.00;97805.16;4201497;28;20040;-73
2022/04/25 05:34:57;;;;;;;14.13;10.07;;;;;;;6.19;100.00;97809.78;4202570;28;20040;-73
2022/04/25 05:36:57;;;;;;;15.20;9.60;;;;;;;6.12;100.00;97812.41;4202024;28;20454;-73
2022/04/25 05:38:58;;;;;;;14.32;9.50;;;;;;;6.13;100.00;97815.97;4204276;28;20039;-73
2022/04/25 05:40:58;;;;;;;11.20;8.27;;;;;;;6.04;100.00;97810.69;4203174;28;20044;-73
2022/04/25 05:43:03;;;;;;;20.02;10.00;;;;;;;6.07;100.00;97823.69;4202784;28;20519;-73
2022/04/25 05:45:04;;;;;;;13.68;8.27;;;;;;;6.14;100.00;97825.78;4208352;28;20044;-73
2022/04/25 05:47:05;;;;;;;12.40;8.27;;;;;;;6.11;100.00;97824.53;4202041;28;20048;-73
2022/04/25 05:53:43;;;;;;;13.00;8.05;;;;;;;6.10;100.00;97835.91;4202937;28;20047;-73
2022/04/25 05:55:43;;;;;;;12.13;7.93;;;;;;;6.06;100.00;97830.34;4202709;28;20391;-73
2022/04/25 05:57:43;;;;;;;12.45;8.63;;;;;;;6.07;100.00;97845.66;4201416;28;20055;-73
2022/04/25 05:59:44;;;;;;;12.10;8.38;;;;;;;6.06;100.00;97843.28;4203174;28;20139;-73
2022/04/25 06:01:44;;;;;;;11.65;8.50;;;;;;;6.08;100.00;97844.50;4205297;28;20075;-73
2022/04/25 06:03:45;;;;;;;13.95;9.10;;;;;;;6.10;100.00;97850.41;4205638;28;20526;-73
2022/04/25 06:05:45;;;;;;;11.02;8.07;;;;;;;6.10;100.00;97857.88;4205739;28;20079;-73
2022/04/25 06:07:47;;;;;;;11.98;8.55;;;;;;;6.10;100.00;97864.16;4205246;28;20044;-73
2022/04/25 06:09:48;;;;;;;11.00;7.88;;;;;;;6.05;100.00;97861.72;4206975;28;20048;-73
2022/04/25 06:11:49;;;;;;;9.60;7.57;;;;;;;6.04;100.00;97862.06;4212606;27;20317;-73
2022/04/25 06:13:50;;;;;;;10.63;7.70;;;;;;;6.02;100.00;97861.63;4205319;28;20085;-73
2022/04/25 06:15:51;;;;;;;13.80;7.88;;;;;;;6.01;100.00;97871.81;4208806;28;20048;-73
2022/04/25 06:17:53;;;;;;;11.95;8.13;;;;;;;6.04;100.00;97864.81;4207096;27;20142;-73
2022/04/25 06:19:53;;;;;;;11.35;7.70;;;;;;;6.03;100.00;97869.50;4205872;28;20075;-73
2022/04/25 06:21:53;;;;;;;13.57;8.60;;;;;;;6.03;100.00;97872.25;4205303;28;20140;-73
2022/04/25 06:23:54;;;;;;;12.38;9.00;;;;;;;6.04;100.00;97875.78;4205774;28;20127;-73
2022/04/25 06:25:54;;;;;;;11.75;8.27;;;;;;;6.08;100.00;97874.72;4209983;28;20239;-73
2022/04/25 06:27:57;;;;;;;10.27;7.60;;;;;;;6.11;100.00;97873.97;4206298;27;20044;-73
2022/04/25 06:29:58;;;;;;;11.65;7.75;;;;;;;6.13;100.00;97876.38;4205466;28;20327;-73
2022/04/25 06:32:02;;;;;;;10.57;7.93;;;;;;;6.15;100.00;97885.84;4212507;28;20044;-73
2022/04/25 06:34:03;;;;;;;11.57;8.35;;;;;;;6.19;100.00;97889.44;4204904;28;20392;-73
2022/04/25 06:36:03;;;;;;;12.32;8.27;;;;;;;6.18;100.00;97889.81;4204486;28;20040;-73
2022/04/25 06:38:03;;;;;;;11.95;9.05;;;;;;;6.23;100.00;97885.97;4204896;28;20777;-73
2022/04/25 06:40:05;;;;;;;11.32;8.40;;;;;;;6.18;100.00;97898.03;4205573;28;20061;-73
2022/04/25 06:42:06;;;;;;;12.75;7.93;;;;;;;6.13;100.00;97890.13;4204563;28;20040;-73
2022/04/25 06:44:06;;;;;;;13.18;9.27;;;;;;;6.16;100.00;97895.66;4205640;28;20034;-73
2022/04/25 06:46:07;;;;;;;11.05;8.43;;;;;;;6.19;100.00;97900.41;4214688;28;20040;-73
2022/04/25 06:48:07;;;;;;;10.18;7.93;;;;;;;6.20;100.00;97898.47;4204569;28;20028;-73
2022/04/25 06:50:08;;;;;;;10.30;7.68;;;;;;;6.27;100.00;97903.31;4208982;27;20027;-73
2022/04/25 06:52:09;;;;;;;10.48;7.80;;;;;;;6.29;100.00;97906.47;4213217;28;20364;-73
2022/04/25 06:54:09;;;;;;;9.38;7.35;;;;;;;6.27;100.00;97904.09;4205420;28;20054;-73
2022/04/25 06:56:10;;;;;;;10.13;7.13;;;;;;;6.30;100.00;97900.66;4205705;27;20032;-73
2022/04/25 06:58:10;;;;;;;11.10;7.97;;;;;;;6.36;100.00;97906.63;4204510;28;20134;-73
2022/04/25 07:00:11;;;;;;;8.90;6.80;;;;;;;6.41;100.00;97909.09;4210378;27;20262;-73
2022/04/25 07:02:11;;;;;;;9.88;7.32;;;;;;;6.45;100.00;97898.94;4210735;28;20127;-73
2022/04/25 07:04:12;;;;;;;9.52;7.25;;;;;;;6.48;100.00;97901.78;4205049;28;20721;-73
2022/04/25 07:06:12;;;;;;;11.70;7.45;;;;;;;6.51;100.00;97921.44;4210599;28;20028;-73
2022/04/25 07:08:13;;;;;;;8.50;6.68;;;;;;;6.55;100.00;97914.06;4205567;28;20105;-73
2022/04/25 07:10:13;;;;;;;10.05;7.13;;;;;;;6.55;100.00;97919.56;4205940;28;20105;-73
2022/04/25 07:12:13;;;;;;;13.98;10.63;;;;;;;6.56;100.00;97923.88;4203657;28;20039;-73
2022/04/25 07:14:18;;;;;;;10.32;8.10;;;;;;;6.59;100.00;97923.94;4204686;28;20070;-73
2022/04/25 07:16:18;;;;;;;9.70;7.60;;;;;;;6.61;100.00;97929.84;4204673;28;20063;-73
2022/04/25 07:18:19;;;;;;;9.02;6.60;;;;;;;6.57;100.00;97928.22;4203885;28;20020;-73
2022/04/25 07:20:19;;;;;;;8.30;7.18;;;;;;;6.59;100.00;97934.94;4204815;28;20040;-73
2022/04/25 07:29:17;;;;;;;12.25;8.95;;;;;;;6.63;100.00;97941.31;4204440;28;20494;-73
2022/04/25 07:31:19;;;;;;;13.27;8.95;;;;;;;6.63;100.00;97932.28;4204371;28;20048;-73
2022/04/25 07:33:19;;;;;;;12.20;8.45;;;;;;;6.67;100.00;97938.59;4204780;28;20074;-73
2022/04/25 07:35:21;;;;;;;9.88;7.20;;;;;;;6.68;100.00;97945.69;4204374;28;20040;-73
2022/04/25 07:37:25;;;;;;;11.50;8.05;;;;;;;6.68;100.00;97935.50;4203715;28;20040;-73
2022/04/25 07:39:25;;;;;;;14.93;6.63;;;;;;;6.66;100.00;97946.06;4203956;28;20829;-73
2022/04/25 07:41:27;;;;;;;8.02;6.60;;;;;;;6.64;100.00;97942.09;4204644;28;20056;-73
2022/04/25 07:43:29;;;;;;;8.55;5.85;;;;;;;6.65;100.00;97954.69;4207014;27;20399;-73
2022/04/25 07:45:29;;;;;;;10.10;6.60;;;;;;;6.67;100.00;97953.16;4204539;28;20066;-73
2022/04/25 07:47:32;;;;;;;11.98;7.05;;;;;;;6.68;100.00;97954.72;4203279;28;20040;-73
2022/04/25 07:49:33;;;;;;;9.60;6.88;;;;;;;6.68;100.00;97957.47;4204486;28;20047;-73
2022/04/25 07:51:34;;;;;;;8.45;6.43;;;;;;;6.68;100.00;97956.69;4204214;28;20619;-73
2022/04/25 07:53:34;;;;;;;9.48;6.90;;;;;;;6.68;100.00;97959.44;4204524;28;20072;-73
2022/04/25 07:55:34;;;;;;;10.55;6.78;;;;;;;6.68;100.00;97956.69;4203728;28;20071;-73
2022/04/25 07:57:35;;;;;;;8.95;6.68;;;;;;;6.71;100.00;97958.72;4203458;28;20279;-73
2022/04/25 07:59:36;;;;;;;8.52;5.90;;;;;;;6.72;100.00;97965.81;4203346;28;20051;-73
2022/04/25 08:01:36;;;;;;;10.32;7.18;;;;;;;6.73;100.00;97967.41;4203911;28;20044;-73
2022/04/25 08:03:37;;;;;;;10.10;6.93;;;;;;;6.76;100.00;97970.19;4205893;28;20183;-73
2022/04/25 08:05:37;;;;;;;12.82;7.15;;;;;;;6.80;100.00;97966.75;4204334;28;20547;-73
2022/04/25 08:07:37;;;;;;;9.80;6.07;;;;;;;6.81;100.00;97976.56;4203186;28;20128;-73
2022/04/25 08:09:38;;;;;;;9.25;6.63;;;;;;;6.84;100.00;97984.88;4208821;27;20391;-73
2022/04/25 08:11:38;;;;;;;8.70;6.60;;;;;;;6.86;100.00;97979.00;4211707;27;20073;-73
2022/04/25 08:18:16;;;;;;;9.70;6.30;;;;;;;6.85;100.00;97989.22;4202441;28;20617;-72
2022/04/25 08:20:16;;;;;;;8.15;6.38;;;;;;;6.87;100.00;97983.34;4203820;28;20028;-73
2022/04/25 08:22:18;;;;;;;10.32;6.93;;;;;;;6.88;100.00;97980.25;4203980;28;20608;-73
2022/04/25 08:24:19;;;;;;;9.35;6.95;;;;;;;6.90;100.00;97985.38;4202779;28;20024;-73
2022/04/25 08:26:21;;;;;;;8.73;6.85;;;;;;;6.96;100.00;97998.47;4203584;28;20126;-73
2022/04/25 08:28:21;;;;;;;8.50;5.50;;;;;;;6.93;100.00;97987.38;4203141;28;20088;-73
2022/04/25 08:30:21;;;;;;;8.88;5.80;;;;;;;6.99;100.00;97992.22;4204003;28;20127;-73
2022/04/25 08:32:22;;;;;;;8.02;5.70;;;;;;;6.95;100.00;97983.13;4203027;28;20442;-73
2022/04/25 08:34:23;;;;;;;6.63;5.40;;;;;;;6.98;100.00;97998.88;4203155;28;20503;-73
2022/04/25 08:36:23;;;;;;;8.15;6.10;;;;;;;6.99;100.00;98003.22;4213147;27;20132;-73
2022/04/25 08:38:24;;;;;;;7.45;5.63;;;;;;;7.04;100.00;98002.16;4202593;28;20476;-73
2022/04/25 08:40:26;;;;;;;8.40;5.90;;;;;;;7.16;100.00;98012.94;4203620;28;20032;-73
2022/04/25 08:42:26;;;;;;;8.67;6.17;;;;;;;7.29;100.00;98010.81;4203609;28;20227;-73
2022/04/25 08:44:29;;;;;;;7.22;5.35;;;;;;;7.38;100.00;98011.38;4203402;28;20327;-73
2022/04/25 08:46:34;;;;;;;8.02;5.78;;;;;;;7.49;100.00;98006.81;4204933;28;20089;-73
2022/04/25 08:48:35;;;;;;;8.15;6.18;;;;;;;7.62;100.00;98003.88;4203238;28;20090;-73
2022/04/25 08:50:37;;;;;;;7.65;5.65;;;;;;;7.77;100.00;98011.97;4203376;28;20048;-73
2022/04/25 08:52:40;;;;;;;9.30;6.47;;;;;;;7.83;100.00;98027.00;4209283;27;20464;-73
2022/04/25 08:54:40;;;;;;;6.93;5.35;;;;;;;7.92;100.00;98023.19;4203325;28;20860;-73
2022/04/25 08:56:42;;;;;;;7.13;5.60;;;;;;;8.03;100.00;98024.97;4202510;28;20039;-73
2022/04/25 08:58:46;;;;;;;7.53;5.20;;;;;;;8.16;99.51;98025.50;4204117;28;20086;-73
2022/04/25 09:00:47;;;;;;;6.53;5.28;;;;;;;8.18;97.30;98029.47;4210275;28;20237;-73
2022/04/25 09:02:49;;;;;;;16.10;8.88;;;;;;;8.08;98.46;98032.09;4205720;28;20249;-73
2022/04/25 09:04:50;;;;;;;8.90;6.40;;;;;;;8.11;98.99;98028.59;4210469;27;20092;-73
2022/04/25 09:06:51;;;;;;;8.15;5.70;;;;;;;8.21;96.65;98036.22;4201547;28;20316;-73
2022/04/25 09:08:52;;;;;;;9.02;6.82;;;;;;;8.16;96.04;98037.31;4208253;28;20036;-73
2022/04/25 09:12:09;;;;;;;15.27;7.53;;;;;;;8.21;96.52;98036.22;4208242;27;20476;-73
2022/04/25 09:13:13;;;;;;;11.20;6.93;;;;;;;8.35;97.15;98038.38;4208943;27;20044;-73
2022/04/25 09:15:20;;;;;;;9.13;5.75;;;;;;;8.41;98.08;98036.91;4202940;28;20480;-73
2022/04/25 09:17:20;;;;;;;10.82;6.30;;;;;;;8.46;96.49;98042.09;4202449;28;20040;-73
2022/04/25 09:19:21;;;;;;;9.82;6.95;;;;;;;8.56;98.76;98049.69;4203410;28;20052;-73
2022/04/25 09:21:21;;;;;;;6.82;5.18;;;;;;;8.50;94.95;98042.91;4202692;28;20036;-72
2022/04/25 09:23:21;;;;;;;7.80;5.97;;;;;;;8.42;94.48;98046.75;4203096;28;20697;-73
2022/04/25 09:25:22;;;;;;;8.02;6.20;;;;;;;8.34;96.58;98042.28;4207346;27;20048;-73
2022/04/25 09:27:23;;;;;;;7.97;6.50;;;;;;;8.41;97.05;98045.16;4202222;28;20040;-73
2022/04/25 09:29:25;;;;;;;7.70;6.15;;;;;;;8.36;96.29;98051.81;4204687;28;20481;-72
2022/04/25 09:31:26;;;;;;;7.35;5.60;;;;;;;8.39;96.73;98061.28;4204316;28;20040;-73
2022/04/25 09:33:26;;;;;;;8.73;7.18;;;;;;;8.40;96.42;98058.16;4207373;28;20032;-73
2022/04/25 09:35:35;;;;;;;7.13;5.78;;;;;;;8.38;95.39;98062.47;4208676;27;20086;-73
2022/04/25 09:37:46;;;;;;;7.43;5.63;;;;;;;8.38;94.62;98067.97;4209839;27;20040;-73
2022/04/25 09:39:47;;;;;;;7.28;5.53;;;;;;;8.27;94.08;98064.22;4206514;28;20479;-73
2022/04/25 09:41:47;;;;;;;10.23;5.95;;;;;;;8.25;94.92;98064.63;4204307;28;20040;-72
2022/04/25 09:43:48;;;;;;;8.27;5.93;;;;;;;8.31;96.74;98068.63;4206427;28;20051;-73
2022/04/25 09:45:59;;;;;;;8.10;6.55;;;;;;;8.21;96.19;98060.22;4206343;28;20125;-73
2022/04/25 09:48:00;;;;;;;8.43;6.15;;;;;;;8.19;95.54;98068.84;4205737;28;20489;-72